Terminal Aerodrome Forecast
Issued by NWS

Current Version | Previous Version | Text Only | Print | Product List | Glossary On
Versions: 1 2 3 4 5 6 7 8 9 10 11 12 13 14 15 16 17 18 19 20 21
000
FTUS41 KBGM 231100
TAFELM
TAF
KELM 231136Z 2312/2412 VRB03KT P6SM SCT005 OVC015
      TEMPO 2312/2314 OVC007
     FM231600 12005KT P6SM OVC025
     FM231800 12006KT P6SM BKN040
     FM240000 VRB03KT P6SM BKN040
     FM240500 00000KT 3SM BR SCT004 BKN040
      TEMPO 2408/2412 1/2SM FG VV002=

USA.gov is the U.S. government's official web portal to all federal, state and local government web resources and services.